Aérodrome :
LOGIN :

S'inscrire | Disclaimer

   EN    FR    IT 

 










Légende :    VFR   VFR Marginal   IFR   IFR Intensif   IFR Très Intensif
Visi : 
Plafond : 
>= 8 km
>= 3000ft
5 à 8 km
1000 à 3000 ft
1500m à 5 km
500 à 1000 ft
800 à 1500m
200 à 500 ft
< 800m
< 200 ft
Symboles :   Orages  Brouillard  Fortes neiges  Fortes précipitations  Vent > 20 kt
SIGMETs :   Divers  Orages  Givrage  Turbulence  Onde Orograph.  Cendres Volcan.






- Altitude de l'aérodrome : 17 ft
- Code IATA : GRQ


EHGG - Groningen Eelde

DERNIER METAR :
  • 240155Z AUTO 23001KT 1300 R23/P2000N BR NSC M00/M01 Q0994

METARs EXPIRÉS :
  • 240125Z AUTO VRB01KT 3800 BR NSC M00/M00 Q0993
  • 240055Z AUTO 33002KT 2600 BR NSC M00/M00 Q0993
  • 240025Z AUTO 28002KT 2600 BR NSC M00/M00 Q0993
  • 232355Z AUTO VRB01KT 2800 BR NSC M00/M01 Q0993
  • 232325Z AUTO 30002KT 2700 BR NSC M00/M01 Q0993

TAF TAF EHGG
Valide du 24 à 00h jusqu'au 25 à 06h UTC


232320Z 2400/2506 VRB05KT 4000 MIFG BR NSC
PROB40
TEMPO 2400/2406 1200 BCFG
PROB40 2406/2411 BKN003
BECMG 2408/2411 9999 NSW
PROB40
TEMPO 2409/2412 4000 RASN SHRAGSSN BKN007 FEW018CB
BECMG 2418/2420 4000 MIFG BR
PROB40
TEMPO 2420/2506 1200 BCFG



MET'MAP, la Météo Aéronautique d'un coup d'oeil ! - Copyright ORBIFLY Décembre 2007 - Disclaimer

ORBIFLY MET'MAP TEAM :

Programmation & Développement : Alexandra Zaïnal
Sur une idée originale de : Baudouin d'Aumeries
Assistance à la programmation : Marc-Olivier Méhu
Soutien technique & logistique : Manuel Goepfert

Contact : metmap@orbifly.com




SOURCES & CREDITS :

   NOAA